Time;durP1;ratioP1;P1;durP2;ratioP2;P2;SDS_P1;SDS_P2;PMS_P1;PMS_P2;Temp;Humidity;BMP_temperature;BMP_pressure;BME280_temperature;BME280_humidity;BME280_pressure;Samples;Min_cycle;Max_cycle;Signal;HPM_P1;HPM_P2
2023/01/16 00:01:59;;;;;;;0.70;0.60;;;8.20;99.90;;;;;;5063151;28;20583;-45
2023/01/16 00:04:29;;;;;;;1.45;0.85;;;8.20;99.90;;;;;;5063478;28;20446;-48
2023/01/16 00:06:57;;;;;;;3.13;0.55;;;8.20;99.90;;;;;;5063959;28;20235;-47
2023/01/16 00:09:26;;;;;;;1.02;0.75;;;8.20;99.90;;;;;;5062864;28;20230;-46
2023/01/16 00:11:55;;;;;;;3.90;0.60;;;8.20;99.90;;;;;;5064446;28;20223;-47
2023/01/16 00:14:23;;;;;;;2.87;0.90;;;8.20;99.90;;;;;;5063520;28;20481;-45
2023/01/16 00:16:52;;;;;;;2.60;0.73;;;8.20;99.90;;;;;;5042799;28;20492;-47
2023/01/16 00:19:20;;;;;;;3.00;0.67;;;8.20;99.90;;;;;;5064387;28;20485;-45
2023/01/16 00:21:50;;;;;;;1.75;0.43;;;8.20;99.90;;;;;;5063045;28;20576;-46
2023/01/16 00:24:19;;;;;;;1.07;0.50;;;8.20;99.90;;;;;;5064299;28;20219;-46
2023/01/16 00:26:50;;;;;;;0.98;0.45;;;8.20;99.90;;;;;;5063010;28;20531;-46
2023/01/16 00:29:19;;;;;;;1.37;0.80;;;8.20;99.90;;;;;;5062405;28;20223;-47
2023/01/16 00:31:48;;;;;;;0.82;0.52;;;8.20;99.90;;;;;;5062621;28;20497;-46
2023/01/16 00:34:16;;;;;;;0.70;0.40;;;8.20;99.90;;;;;;5063942;28;20197;-46
2023/01/16 00:36:45;;;;;;;0.77;0.47;;;8.20;99.90;;;;;;5063531;28;20473;-47
2023/01/16 00:39:15;;;;;;;0.80;0.50;;;8.20;99.90;;;;;;5061803;28;20508;-46
2023/01/16 00:41:43;;;;;;;0.80;0.60;;;8.20;99.90;;;;;;5060069;28;20808;-45
2023/01/16 00:44:12;;;;;;;1.17;0.70;;;8.20;99.90;;;;;;5066556;28;20418;-46
2023/01/16 00:46:40;;;;;;;0.80;0.80;;;8.20;99.90;;;;;;5063129;28;20533;-45
2023/01/16 00:49:09;;;;;;;1.33;0.60;;;8.20;99.90;;;;;;5065282;28;20754;-46
2023/01/16 00:51:37;;;;;;;2.83;0.50;;;8.20;99.90;;;;;;5064292;28;20470;-46
2023/01/16 00:54:06;;;;;;;0.70;0.40;;;8.20;99.90;;;;;;5065350;28;20202;-44
2023/01/16 00:56:36;;;;;;;1.33;0.60;;;8.20;99.90;;;;;;5063160;28;20868;-46
2023/01/16 00:59:04;;;;;;;1.05;0.40;;;8.20;99.90;;;;;;5064992;28;20244;-48
2023/01/16 01:01:34;;;;;;;1.23;0.85;;;8.10;99.90;;;;;;5063152;28;20588;-45
2023/01/16 01:04:02;;;;;;;1.07;0.50;;;8.20;99.90;;;;;;5064784;28;20200;-45
2023/01/16 01:06:33;;;;;;;0.60;0.43;;;8.20;99.90;;;;;;5046559;28;21000;-46
2023/01/16 01:09:02;;;;;;;2.60;0.70;;;8.20;99.90;;;;;;5050438;28;20483;-47
2023/01/16 01:11:31;;;;;;;0.90;0.50;;;8.20;99.90;;;;;;5062578;28;20490;-46
2023/01/16 01:14:01;;;;;;;0.90;0.50;;;8.20;99.90;;;;;;5064671;28;20448;-46
2023/01/16 01:16:33;;;;;;;0.60;0.60;;;8.20;99.90;;;;;;5062219;28;21041;-45
2023/01/16 01:19:02;;;;;;;1.00;0.60;;;8.20;99.90;;;;;;5063362;28;20877;-47
2023/01/16 01:21:30;;;;;;;0.73;0.60;;;8.20;99.90;;;;;;5064354;28;20512;-46
2023/01/16 01:23:59;;;;;;;1.83;0.60;;;8.10;99.90;;;;;;5064247;28;20294;-46
2023/01/16 01:26:28;;;;;;;1.63;0.85;;;8.10;99.90;;;;;;5063536;28;20462;-47
2023/01/16 01:28:56;;;;;;;0.77;0.63;;;8.10;99.90;;;;;;5064405;28;20217;-46
2023/01/16 01:31:26;;;;;;;0.90;0.70;;;8.10;99.90;;;;;;5062485;28;20189;-45
2023/01/16 01:33:55;;;;;;;1.23;0.63;;;8.10;99.90;;;;;;5077800;28;20990;-46
2023/01/16 01:36:23;;;;;;;1.25;0.65;;;8.10;99.90;;;;;;5065601;28;20493;-46
2023/01/16 01:38:52;;;;;;;0.90;0.40;;;8.10;99.90;;;;;;5067280;28;20667;-46
2023/01/16 01:41:21;;;;;;;0.50;0.40;;;8.10;99.90;;;;;;5067855;28;20497;-47
2023/01/16 01:43:54;;;;;;;2.20;0.80;;;8.10;99.90;;;;;;5067548;28;20303;-46
2023/01/16 01:46:29;;;;;;;0.63;0.40;;;8.10;99.90;;;;;;5066269;28;20446;-45
2023/01/16 01:49:05;;;;;;;0.50;0.50;;;8.10;99.90;;;;;;5063216;28;20976;-46
2023/01/16 01:51:38;;;;;;;0.70;0.50;;;8.10;99.90;;;;;;5067232;28;20302;-46
2023/01/16 01:54:09;;;;;;;1.80;0.60;;;8.10;99.90;;;;;;5066893;28;20199;-46
2023/01/16 01:56:43;;;;;;;1.02;0.50;;;8.10;99.90;;;;;;5066247;28;20221;-47
2023/01/16 01:59:19;;;;;;;1.10;0.37;;;8.10;99.90;;;;;;5065500;28;20627;-47
2023/01/16 02:01:50;;;;;;;0.80;0.57;;;8.10;99.90;;;;;;5066307;28;20861;-46
2023/01/16 02:04:21;;;;;;;1.27;0.43;;;8.10;99.90;;;;;;5068451;28;20560;-47
2023/01/16 02:06:54;;;;;;;0.95;0.40;;;8.10;99.90;;;;;;5067511;28;20463;-47
2023/01/16 02:09:25;;;;;;;1.05;0.63;;;8.10;99.90;;;;;;5068431;28;20315;-46
2023/01/16 02:11:56;;;;;;;0.90;0.43;;;8.10;99.90;;;;;;5060133;28;20261;-46
2023/01/16 02:14:28;;;;;;;0.85;0.40;;;8.10;99.90;;;;;;5067581;28;20239;-47
2023/01/16 02:19:57;;;;;;;0.73;0.50;;;8.10;99.90;;;;;;5068055;28;20218;-47
2023/01/16 02:23:07;;;;;;;1.00;0.70;;;8.10;99.90;;;;;;5050248;28;20225;-47
2023/01/16 02:26:23;;;;;;;0.73;0.60;;;8.10;99.90;;;;;;5070520;28;20201;-46
2023/01/16 02:29:28;;;;;;;0.65;0.50;;;8.00;99.90;;;;;;5067515;28;20210;-46
2023/01/16 02:32:09;;;;;;;0.70;0.40;;;8.10;99.90;;;;;;5066092;28;20224;-47
2023/01/16 02:35:04;;;;;;;0.85;0.47;;;8.10;99.90;;;;;;5067879;28;20212;-46
2023/01/16 02:37:44;;;;;;;1.00;0.70;;;8.00;99.90;;;;;;5060966;28;20283;-44
2023/01/16 02:40:27;;;;;;;0.80;0.40;;;8.10;99.90;;;;;;5067537;28;20212;-45
2023/01/16 02:43:05;;;;;;;1.20;0.85;;;8.00;99.90;;;;;;5059969;28;20265;-47
2023/01/16 02:45:43;;;;;;;0.70;0.38;;;8.00;99.90;;;;;;5066120;28;20197;-44
2023/01/16 02:48:24;;;;;;;0.70;0.50;;;8.00;99.90;;;;;;5067537;28;20209;-46
2023/01/16 02:50:58;;;;;;;0.70;0.52;;;8.00;99.90;;;;;;5061536;28;20221;-45
2023/01/16 02:53:31;;;;;;;1.38;0.70;;;8.00;99.90;;;;;;5067387;28;20196;-46
2023/01/16 02:56:08;;;;;;;3.90;0.70;;;8.00;99.90;;;;;;5062264;28;20614;-45
2023/01/16 02:58:41;;;;;;;1.00;0.50;;;8.00;99.90;;;;;;5067599;28;20260;-45
2023/01/16 03:01:13;;;;;;;0.60;0.55;;;8.00;99.90;;;;;;5066074;28;20274;-47
2023/01/16 03:03:46;;;;;;;1.08;0.50;;;8.00;99.90;;;;;;5067110;28;20578;-47
2023/01/16 03:06:38;;;;;;;0.50;0.32;;;8.00;99.90;;;;;;5066933;28;20199;-46
2023/01/16 03:09:31;;;;;;;0.50;0.30;;;8.00;99.90;;;;;;5067229;28;20217;-46
2023/01/16 03:12:25;;;;;;;0.80;0.50;;;8.00;99.90;;;;;;5059885;28;20216;-45
2023/01/16 03:15:04;;;;;;;0.60;0.60;;;8.00;99.90;;;;;;5064849;28;20192;-46
2023/01/16 03:17:46;;;;;;;0.80;0.70;;;8.00;99.90;;;;;;5065697;28;20310;-46
2023/01/16 03:20:31;;;;;;;0.73;0.50;;;8.00;99.90;;;;;;5066820;28;20834;-46
2023/01/16 03:23:09;;;;;;;0.90;0.50;;;8.00;99.90;;;;;;5076571;28;20209;-45
2023/01/16 03:25:46;;;;;;;0.80;0.38;;;8.00;99.90;;;;;;5079295;28;20639;-46
2023/01/16 03:28:24;;;;;;;0.80;0.80;;;8.00;99.90;;;;;;5066623;28;20188;-46
2023/01/16 03:31:05;;;;;;;0.80;0.55;;;8.00;99.90;;;;;;5054497;28;20214;-46
2023/01/16 03:33:43;;;;;;;0.50;0.40;;;8.00;99.90;;;;;;5062305;28;20194;-47
2023/01/16 03:36:17;;;;;;;1.15;0.40;;;8.00;99.90;;;;;;5065794;28;20752;-47
2023/01/16 03:38:46;;;;;;;0.73;0.40;;;8.00;99.90;;;;;;5064698;28;20207;-47
2023/01/16 03:41:20;;;;;;;0.73;0.35;;;8.00;99.90;;;;;;5062390;28;20193;-47
2023/01/16 03:43:52;;;;;;;0.60;0.40;;;8.00;99.90;;;;;;5063882;28;20196;-46
2023/01/16 03:46:24;;;;;;;0.50;0.40;;;7.90;99.90;;;;;;5061308;28;20263;-46
2023/01/16 03:48:56;;;;;;;1.13;0.47;;;7.90;99.90;;;;;;5081839;28;20192;-47
2023/01/16 03:51:30;;;;;;;0.50;0.30;;;7.90;99.90;;;;;;5066265;28;20196;-45
2023/01/16 03:54:06;;;;;;;1.13;0.40;;;7.90;99.90;;;;;;5058510;28;20188;-46
2023/01/16 03:56:41;;;;;;;0.70;0.40;;;8.00;99.90;;;;;;5062940;28;20220;-46
2023/01/16 03:59:10;;;;;;;0.90;0.35;;;8.00;99.90;;;;;;5058075;28;20261;-45
2023/01/16 04:01:46;;;;;;;1.50;0.43;;;7.90;99.90;;;;;;5062692;28;20696;-47
2023/01/16 04:04:20;;;;;;;0.88;0.43;;;8.00;99.90;;;;;;5065537;28;20445;-46
2023/01/16 04:06:55;;;;;;;0.80;0.37;;;8.00;99.90;;;;;;5064841;28;20219;-46
2023/01/16 04:09:29;;;;;;;1.23;0.60;;;8.00;99.90;;;;;;5066115;28;20469;-45
2023/01/16 04:11:59;;;;;;;0.60;0.40;;;7.90;99.90;;;;;;5064405;28;20726;-46
2023/01/16 04:14:29;;;;;;;0.55;0.30;;;7.90;99.90;;;;;;5065407;28;20634;-47
2023/01/16 04:16:59;;;;;;;0.70;0.50;;;7.90;99.90;;;;;;5056115;28;20259;-46
2023/01/16 04:19:29;;;;;;;0.93;0.43;;;7.90;99.90;;;;;;5066168;28;20799;-45
2023/01/16 04:21:59;;;;;;;0.97;0.70;;;7.90;99.90;;;;;;5074769;28;20227;-46
2023/01/16 04:24:28;;;;;;;1.37;0.50;;;7.90;99.90;;;;;;5065750;28;20450;-45
2023/01/16 04:26:56;;;;;;;0.60;0.38;;;7.90;99.90;;;;;;5065202;28;20468;-46
2023/01/16 04:29:25;;;;;;;1.80;0.50;;;7.90;99.90;;;;;;5065465;28;20741;-47
2023/01/16 04:31:55;;;;;;;3.40;0.55;;;7.90;99.90;;;;;;5056692;28;20225;-45
2023/01/16 04:34:23;;;;;;;0.70;0.40;;;7.90;99.90;;;;;;5065517;28;20196;-45
2023/01/16 04:36:52;;;;;;;0.63;0.40;;;7.90;99.90;;;;;;5064843;28;20529;-44
2023/01/16 04:39:22;;;;;;;4.70;0.47;;;7.80;99.90;;;;;;5063794;28;20218;-45
2023/01/16 04:41:51;;;;;;;0.63;0.40;;;7.80;99.90;;;;;;5069581;28;20375;-45
2023/01/16 04:44:20;;;;;;;1.60;0.60;;;7.80;99.90;;;;;;5060028;28;20192;-46
2023/01/16 04:46:49;;;;;;;2.25;0.40;;;7.80;99.90;;;;;;5071610;28;20213;-48
2023/01/16 04:49:19;;;;;;;1.55;0.50;;;7.80;99.90;;;;;;5065865;28;20216;-45
2023/01/16 04:51:48;;;;;;;0.50;0.40;;;7.80;99.90;;;;;;5064955;28;21099;-46
2023/01/16 04:54:18;;;;;;;0.98;0.30;;;7.80;99.90;;;;;;5065866;28;20187;-46
2023/01/16 04:56:48;;;;;;;0.73;0.50;;;7.80;99.90;;;;;;5063053;28;20221;-47
2023/01/16 04:59:18;;;;;;;0.90;0.60;;;7.90;99.90;;;;;;5065774;28;20257;-46
2023/01/16 05:01:47;;;;;;;2.80;0.40;;;7.90;99.90;;;;;;5063754;28;20221;-46
2023/01/16 05:04:17;;;;;;;0.80;0.35;;;7.90;99.90;;;;;;5065389;28;20198;-47
2023/01/16 05:06:46;;;;;;;1.23;0.60;;;7.90;99.90;;;;;;5066995;28;20227;-46
2023/01/16 05:09:15;;;;;;;0.50;0.30;;;7.90;99.90;;;;;;5068713;28;20215;-46
2023/01/16 05:11:43;;;;;;;1.95;0.68;;;7.90;99.90;;;;;;5068534;28;20232;-46
2023/01/16 05:14:13;;;;;;;0.93;0.60;;;7.90;99.90;;;;;;5066145;28;20211;-47
2023/01/16 05:16:42;;;;;;;0.80;0.50;;;7.90;99.90;;;;;;5064426;28;20635;-46
2023/01/16 05:19:11;;;;;;;1.00;0.70;;;7.90;99.90;;;;;;5069633;28;20231;-46
2023/01/16 05:21:41;;;;;;;0.60;0.40;;;7.90;99.90;;;;;;5068679;28;20221;-45
2023/01/16 05:24:09;;;;;;;0.52;0.38;;;7.80;99.90;;;;;;5065501;28;20192;-46
2023/01/16 05:26:38;;;;;;;0.85;0.47;;;7.80;99.90;;;;;;5066175;28;20206;-46
2023/01/16 05:29:07;;;;;;;0.60;0.50;;;7.80;99.90;;;;;;5063282;28;20215;-47
2023/01/16 05:31:37;;;;;;;2.00;0.45;;;7.80;99.90;;;;;;5073687;28;20220;-45
2023/01/16 05:34:06;;;;;;;0.95;0.40;;;7.80;99.90;;;;;;5071235;28;20263;-44
2023/01/16 05:36:34;;;;;;;0.95;0.50;;;7.80;99.90;;;;;;5070056;28;20192;-46
2023/01/16 05:39:03;;;;;;;1.30;0.50;;;7.80;99.90;;;;;;5070164;28;20694;-46
2023/01/16 05:41:32;;;;;;;0.85;0.40;;;7.80;99.90;;;;;;5066720;28;20266;-46
2023/01/16 05:44:00;;;;;;;1.02;0.50;;;7.80;99.90;;;;;;5067584;28;20188;-46
2023/01/16 05:46:29;;;;;;;2.10;0.30;;;7.80;99.90;;;;;;5074144;28;20224;-45
2023/01/16 05:48:59;;;;;;;0.70;0.50;;;7.80;99.90;;;;;;5069993;28;20278;-47
2023/01/16 05:51:27;;;;;;;1.00;0.45;;;7.80;99.90;;;;;;5060042;28;20235;-46
2023/01/16 05:53:56;;;;;;;0.90;0.40;;;7.80;99.90;;;;;;5062134;28;20192;-47
2023/01/16 05:56:25;;;;;;;0.70;0.32;;;7.80;99.90;;;;;;5068625;28;20192;-46
2023/01/16 05:58:57;;;;;;;0.70;0.47;;;7.80;99.90;;;;;;5061275;28;20188;-45
2023/01/16 06:01:25;;;;;;;0.50;0.30;;;7.80;99.90;;;;;;5067968;28;20211;-46
2023/01/16 06:03:54;;;;;;;1.40;0.43;;;7.80;99.90;;;;;;5068956;28;20223;-46
2023/01/16 06:06:24;;;;;;;1.55;0.52;;;7.80;99.90;;;;;;5069109;28;20192;-47
2023/01/16 06:08:52;;;;;;;0.73;0.60;;;7.80;99.90;;;;;;5062713;28;20519;-46
2023/01/16 06:11:21;;;;;;;1.67;0.50;;;7.80;99.90;;;;;;5060449;28;20568;-46
2023/01/16 06:13:49;;;;;;;0.55;0.52;;;7.80;99.90;;;;;;5067309;28;20279;-46
2023/01/16 06:16:18;;;;;;;1.45;0.43;;;7.70;99.90;;;;;;5067054;28;20274;-47
2023/01/16 06:18:47;;;;;;;0.65;0.65;;;7.70;99.90;;;;;;5084332;28;20196;-47
2023/01/16 06:21:15;;;;;;;0.82;0.52;;;7.70;99.90;;;;;;5068226;28;20184;-46
2023/01/16 06:23:45;;;;;;;1.48;0.50;;;7.70;99.90;;;;;;5065394;28;20200;-45
2023/01/16 06:26:14;;;;;;;2.08;0.50;;;7.70;99.90;;;;;;5064659;28;20291;-44
2023/01/16 06:28:42;;;;;;;0.60;0.40;;;7.70;99.90;;;;;;5067719;28;20201;-45
2023/01/16 06:31:11;;;;;;;0.90;0.70;;;7.70;99.90;;;;;;5066762;28;20703;-46
2023/01/16 06:33:39;;;;;;;1.80;0.70;;;7.70;99.90;;;;;;5066179;28;20189;-46
2023/01/16 06:36:08;;;;;;;1.02;0.60;;;7.70;99.90;;;;;;5067883;28;20220;-47
2023/01/16 06:38:37;;;;;;;1.75;0.77;;;7.70;99.90;;;;;;5066170;28;20576;-46
2023/01/16 06:41:07;;;;;;;1.25;0.57;;;7.70;99.90;;;;;;5066142;28;20273;-45
2023/01/16 06:43:36;;;;;;;1.15;0.40;;;7.70;99.90;;;;;;5067523;28;20731;-47
2023/01/16 06:46:05;;;;;;;2.30;0.60;;;7.70;99.90;;;;;;5060258;28;20226;-46
2023/01/16 06:48:36;;;;;;;3.20;0.93;;;7.70;99.90;;;;;;5067309;28;20201;-47
2023/01/16 06:51:05;;;;;;;1.45;0.52;;;7.70;99.90;;;;;;5067677;28;20277;-46
2023/01/16 06:53:34;;;;;;;1.30;0.60;;;7.70;99.90;;;;;;5066714;28;20718;-47
2023/01/16 06:56:03;;;;;;;0.60;0.52;;;7.70;99.90;;;;;;5068420;28;20188;-46
2023/01/16 06:58:32;;;;;;;2.33;0.75;;;7.70;99.90;;;;;;5068085;28;20623;-45
2023/01/16 07:01:01;;;;;;;1.00;0.40;;;7.70;99.90;;;;;;5067922;28;20209;-45
2023/01/16 07:03:37;;;;;;;1.45;0.52;;;7.70;99.90;;;;;;5069308;28;20232;-47
2023/01/16 07:06:06;;;;;;;1.17;0.60;;;7.70;99.90;;;;;;5066663;28;20219;-46
2023/01/16 07:08:37;;;;;;;1.30;0.73;;;7.70;99.90;;;;;;5068289;28;20196;-47
2023/01/16 07:11:05;;;;;;;2.65;0.75;;;7.70;99.90;;;;;;5067583;28;20286;-46
2023/01/16 07:13:37;;;;;;;0.98;0.60;;;7.70;99.90;;;;;;5066778;28;20547;-46
2023/01/16 07:24:30;;;;;;;2.42;0.63;;;7.70;99.90;;;;;;5066219;28;20210;-46
2023/01/16 07:27:02;;;;;;;0.70;0.43;;;7.70;99.90;;;;;;5064127;28;20632;-45
2023/01/16 07:29:34;;;;;;;1.88;0.90;;;7.70;99.90;;;;;;5067200;28;20687;-45
2023/01/16 07:32:04;;;;;;;1.88;0.50;;;7.70;99.90;;;;;;5065938;28;20271;-45
2023/01/16 07:34:35;;;;;;;0.85;0.40;;;7.70;99.90;;;;;;5070191;28;20205;-46
2023/01/16 07:37:03;;;;;;;1.55;0.70;;;7.70;99.90;;;;;;5068323;28;20269;-46
2023/01/16 07:39:32;;;;;;;0.88;0.50;;;7.60;99.90;;;;;;5064220;28;20650;-44
2023/01/16 07:42:04;;;;;;;2.30;0.65;;;7.60;99.90;;;;;;5066415;28;20283;-47
2023/01/16 07:44:34;;;;;;;1.92;0.47;;;7.60;99.90;;;;;;5068874;28;20269;-45
2023/01/16 07:47:02;;;;;;;2.47;0.70;;;7.60;99.90;;;;;;5067183;28;20601;-45
2023/01/16 07:49:30;;;;;;;0.95;0.50;;;7.60;99.90;;;;;;5070146;28;20298;-46
2023/01/16 07:51:59;;;;;;;1.00;0.90;;;7.60;99.90;;;;;;5079630;28;20212;-46
2023/01/16 07:54:27;;;;;;;1.88;0.55;;;7.60;99.90;;;;;;5076299;28;20196;-45
2023/01/16 07:56:56;;;;;;;1.50;0.50;;;7.60;99.90;;;;;;5070337;28;20216;-45
2023/01/16 07:59:24;;;;;;;1.40;0.80;;;7.60;99.90;;;;;;5070015;28;20240;-45
2023/01/16 08:01:54;;;;;;;0.70;0.55;;;7.60;99.90;;;;;;5074438;28;20220;-46
2023/01/16 08:04:23;;;;;;;0.95;0.70;;;7.60;99.90;;;;;;5075615;28;20193;-46
2023/01/16 08:06:52;;;;;;;1.15;0.50;;;7.60;99.90;;;;;;5074130;28;20230;-45
2023/01/16 08:09:20;;;;;;;2.05;0.70;;;7.60;99.90;;;;;;5071160;28;20272;-44
2023/01/16 08:11:48;;;;;;;0.85;0.50;;;7.60;99.90;;;;;;5066328;28;20304;-44
2023/01/16 08:14:17;;;;;;;3.53;0.60;;;7.60;99.90;;;;;;5065578;28;20235;-46
2023/01/16 08:16:45;;;;;;;0.80;0.60;;;7.60;99.90;;;;;;5055886;28;20236;-46
2023/01/16 08:19:15;;;;;;;1.98;0.60;;;7.60;99.90;;;;;;5065449;28;20291;-46
2023/01/16 08:21:44;;;;;;;0.85;0.63;;;7.60;99.90;;;;;;5065010;28;20216;-44
2023/01/16 08:24:14;;;;;;;1.30;0.88;;;7.60;99.90;;;;;;5062871;28;20220;-47
2023/01/16 08:26:43;;;;;;;0.55;0.40;;;7.60;99.90;;;;;;5065010;28;20220;-45
2023/01/16 08:29:13;;;;;;;0.60;0.60;;;7.60;99.90;;;;;;5065153;28;20219;-45
2023/01/16 08:31:42;;;;;;;1.90;0.50;;;7.60;99.90;;;;;;5063676;28;20221;-44
2023/01/16 08:34:11;;;;;;;0.85;0.50;;;7.60;99.90;;;;;;5066728;28;20188;-45
2023/01/16 08:36:41;;;;;;;1.80;0.75;;;7.60;99.90;;;;;;5065001;28;20672;-45
2023/01/16 08:39:10;;;;;;;0.90;0.50;;;7.60;99.90;;;;;;5065477;28;20707;-46
2023/01/16 08:52:43;;;;;;;2.15;0.73;;;7.60;99.90;;;;;;5062744;28;20259;-46
2023/01/16 08:55:12;;;;;;;0.70;0.70;;;7.60;99.90;;;;;;5059048;28;20592;-46
2023/01/16 08:57:40;;;;;;;0.90;0.60;;;7.60;99.90;;;;;;5064727;28;20270;-46
2023/01/16 09:00:10;;;;;;;0.57;0.45;;;7.60;99.90;;;;;;5066711;28;20212;-46
2023/01/16 09:02:38;;;;;;;0.60;0.43;;;7.50;99.90;;;;;;5062314;28;20257;-44
2023/01/16 09:05:08;;;;;;;0.90;0.50;;;7.50;99.90;;;;;;5062289;28;20204;-46
2023/01/16 09:07:36;;;;;;;0.90;0.35;;;7.50;99.90;;;;;;5064649;28;20311;-46
2023/01/16 09:10:07;;;;;;;1.10;0.60;;;7.50;99.90;;;;;;5062409;28;20196;-46
2023/01/16 09:15:21;;;;;;;0.75;0.55;;;7.50;99.90;;;;;;5065494;28;20196;-48
2023/01/16 09:17:50;;;;;;;0.50;0.40;;;7.50;99.90;;;;;;5056623;28;20235;-45
2023/01/16 09:20:18;;;;;;;1.00;0.40;;;7.50;99.90;;;;;;5064795;28;20210;-45
2023/01/16 09:22:47;;;;;;;0.70;0.60;;;7.50;99.90;;;;;;5064614;28;20244;-45
2023/01/16 09:25:16;;;;;;;1.30;0.88;;;7.50;99.90;;;;;;5066725;28;20201;-45
2023/01/16 09:27:47;;;;;;;0.80;0.30;;;7.50;99.90;;;;;;5063342;28;20223;-44
2023/01/16 09:30:16;;;;;;;0.85;0.50;;;7.50;99.90;;;;;;5065144;28;20341;-45
2023/01/16 09:32:45;;;;;;;0.63;0.50;;;7.50;99.90;;;;;;5053930;28;20295;-46
2023/01/16 09:35:16;;;;;;;0.90;0.50;;;7.50;99.90;;;;;;5058500;28;20289;-45
2023/01/16 09:37:45;;;;;;;0.50;0.30;;;7.50;99.90;;;;;;5063783;28;20648;-45
2023/01/16 09:40:17;;;;;;;0.60;0.50;;;7.50;99.90;;;;;;5058764;28;20213;-44
2023/01/16 09:45:46;;;;;;;0.80;0.40;;;7.50;99.90;;;;;;5055042;28;20194;-46
2023/01/16 09:48:26;;;;;;;0.60;0.40;;;7.50;99.90;;;;;;5060186;28;20433;-44
2023/01/16 09:50:57;;;;;;;0.75;0.40;;;7.50;99.90;;;;;;5056736;28;20307;-46
2023/01/16 09:59:33;;;;;;;2.75;0.50;;;7.50;99.90;;;;;;5066007;28;20209;-45
2023/01/16 10:02:13;;;;;;;1.30;0.40;;;7.50;99.90;;;;;;5051183;28;20309;-45
2023/01/16 10:04:43;;;;;;;0.60;0.40;;;7.50;99.90;;;;;;5060033;28;20201;-45
2023/01/16 10:07:41;;;;;;;1.13;0.43;;;7.50;99.90;;;;;;5067053;28;20605;-45
2023/01/16 10:10:36;;;;;;;0.50;0.40;;;7.50;99.90;;;;;;5061178;28;20305;-45
2023/01/16 10:13:23;;;;;;;0.60;0.38;;;7.50;99.90;;;;;;5069257;28;20216;-46
2023/01/16 10:16:00;;;;;;;0.65;0.50;;;7.50;99.90;;;;;;5066524;28;20192;-46
2023/01/16 10:18:38;;;;;;;1.00;0.50;;;7.50;99.90;;;;;;5068103;28;20196;-45
2023/01/16 10:21:21;;;;;;;0.50;0.32;;;7.50;99.90;;;;;;5067468;28;20250;-46
2023/01/16 10:23:55;;;;;;;1.00;0.40;;;7.50;99.90;;;;;;5063375;28;20192;-46
2023/01/16 10:26:29;;;;;;;0.60;0.40;;;7.50;99.90;;;;;;5067207;28;20593;-45
2023/01/16 10:29:06;;;;;;;0.60;0.40;;;7.50;99.90;;;;;;5060555;28;20288;-44
2023/01/16 10:31:41;;;;;;;0.50;0.40;;;7.50;99.90;;;;;;5065406;28;20273;-46
2023/01/16 10:34:16;;;;;;;0.50;0.40;;;7.50;99.90;;;;;;5050461;28;20261;-44
2023/01/16 10:36:47;;;;;;;0.57;0.40;;;7.50;99.90;;;;;;5064720;28;20303;-46
2023/01/16 10:39:18;;;;;;;0.40;0.30;;;7.50;99.90;;;;;;5068003;28;20319;-46
2023/01/16 10:50:13;;;;;;;0.75;0.40;;;7.60;99.90;;;;;;5067857;28;20228;-47
2023/01/16 10:52:43;;;;;;;0.85;0.47;;;7.60;99.90;;;;;;5066800;28;20224;-44
2023/01/16 10:55:12;;;;;;;0.50;0.30;;;7.60;99.90;;;;;;5062183;28;20214;-46
2023/01/16 10:57:46;;;;;;;0.80;0.50;;;7.60;99.90;;;;;;5066526;28;20660;-46
2023/01/16 11:00:19;;;;;;;0.50;0.30;;;7.60;99.90;;;;;;5067638;28;20298;-45
2023/01/16 11:02:48;;;;;;;0.80;0.55;;;7.60;99.90;;;;;;5065633;28;20680;-45
2023/01/16 11:05:25;;;;;;;0.77;0.40;;;7.60;99.90;;;;;;5066233;28;20367;-46
2023/01/16 11:07:54;;;;;;;0.75;0.40;;;7.60;99.90;;;;;;5059532;28;20663;-46
2023/01/16 11:10:24;;;;;;;0.40;0.30;;;7.60;99.90;;;;;;5067266;28;20217;-45
2023/01/16 11:18:56;;;;;;;1.00;0.50;;;7.60;99.90;;;;;;4979652;28;20343;-46
2023/01/16 11:21:27;;;;;;;0.50;0.30;;;7.60;99.90;;;;;;5002494;28;20241;-46
2023/01/16 11:24:01;;;;;;;0.40;0.30;;;7.60;99.90;;;;;;4997671;28;20881;-44
2023/01/16 11:26:31;;;;;;;0.63;0.38;;;7.60;99.90;;;;;;4998186;28;20232;-45
2023/01/16 11:29:00;;;;;;;0.50;0.30;;;7.60;99.90;;;;;;5002349;28;20337;-45
2023/01/16 11:31:31;;;;;;;0.70;0.40;;;7.60;99.90;;;;;;5002019;28;20246;-46
2023/01/16 11:34:02;;;;;;;0.50;0.30;;;7.60;99.90;;;;;;5061600;28;20239;-45
2023/01/16 11:36:34;;;;;;;0.57;0.40;;;7.60;99.90;;;;;;5065398;28;20278;-46
2023/01/16 11:39:05;;;;;;;1.08;0.55;;;7.60;99.90;;;;;;5066218;28;20213;-46
2023/01/16 11:41:36;;;;;;;0.82;0.50;;;7.60;99.90;;;;;;5079019;28;20289;-44
2023/01/16 11:47:01;;;;;;;0.40;0.30;;;7.60;99.90;;;;;;5053123;28;20775;-45
2023/01/16 11:49:36;;;;;;;1.08;0.30;;;7.60;99.90;;;;;;5065624;28;20208;-44
2023/01/16 11:52:05;;;;;;;1.42;0.38;;;7.60;99.90;;;;;;5064891;28;20309;-45
2023/01/16 11:54:35;;;;;;;1.75;0.50;;;7.70;99.90;;;;;;5062891;28;20220;-46
2023/01/16 11:57:19;;;;;;;1.40;1.05;;;7.60;99.90;;;;;;5058109;28;20759;-46
2023/01/16 12:00:10;;;;;;;1.38;0.40;;;7.60;99.90;;;;;;5060546;28;20811;-45
2023/01/16 12:02:56;;;;;;;1.13;0.30;;;7.60;99.90;;;;;;5061403;28;20281;-46
2023/01/16 12:05:57;;;;;;;0.50;0.30;;;7.60;99.90;;;;;;5066818;28;20187;-45
2023/01/16 12:08:54;;;;;;;0.50;0.40;;;7.60;99.90;;;;;;5062128;28;20688;-46
2023/01/16 12:11:32;;;;;;;1.08;0.30;;;7.60;99.90;;;;;;5057513;28;20733;-44
2023/01/16 12:14:19;;;;;;;1.08;0.40;;;7.60;99.90;;;;;;5058185;28;20209;-46
2023/01/16 12:17:08;;;;;;;1.23;0.50;;;7.60;99.90;;;;;;5062619;28;20224;-46
2023/01/16 12:20:13;;;;;;;0.68;0.40;;;7.60;99.90;;;;;;5066260;28;20703;-45
2023/01/16 12:22:57;;;;;;;0.70;0.40;;;7.60;99.90;;;;;;5049207;28;20323;-45
2023/01/16 12:25:32;;;;;;;1.10;0.50;;;7.60;99.90;;;;;;5063541;28;20200;-45
2023/01/16 12:28:11;;;;;;;0.60;0.40;;;7.60;99.90;;;;;;5061205;28;20470;-46
2023/01/16 12:30:56;;;;;;;0.70;0.40;;;7.60;99.90;;;;;;5039997;28;20308;-45
2023/01/16 12:33:35;;;;;;;0.60;0.30;;;7.60;99.90;;;;;;5078873;28;20725;-45
2023/01/16 12:36:11;;;;;;;0.73;0.38;;;7.60;99.90;;;;;;5057216;28;20216;-45
2023/01/16 12:39:03;;;;;;;0.40;0.20;;;7.70;99.90;;;;;;5064438;28;20199;-45
2023/01/16 12:44:38;;;;;;;0.50;0.30;;;7.60;99.90;;;;;;5066120;28;20188;-44
2023/01/16 12:47:28;;;;;;;0.50;0.30;;;7.60;99.90;;;;;;5053384;28;20243;-45
2023/01/16 12:50:09;;;;;;;0.50;0.40;;;7.60;99.90;;;;;;5066124;28;20791;-45
2023/01/16 12:52:54;;;;;;;0.88;0.70;;;7.60;99.90;;;;;;5064364;28;20266;-46
2023/01/16 12:55:34;;;;;;;0.70;0.40;;;7.60;99.90;;;;;;5063527;28;20223;-44
2023/01/16 12:58:18;;;;;;;0.60;0.40;;;7.60;99.90;;;;;;5064439;28;20229;-47
2023/01/16 13:00:51;;;;;;;0.50;0.30;;;7.60;99.90;;;;;;5061153;28;20220;-46
2023/01/16 13:03:29;;;;;;;0.60;0.30;;;7.60;99.90;;;;;;5054138;28;20198;-45
2023/01/16 13:05:59;;;;;;;0.50;0.30;;;7.60;99.90;;;;;;5057561;28;20874;-46
2023/01/16 13:08:36;;;;;;;0.82;0.40;;;7.60;99.90;;;;;;5065393;28;20223;-46
2023/01/16 13:14:02;;;;;;;0.50;0.30;;;7.60;99.90;;;;;;5058209;28;20467;-44
2023/01/16 13:16:33;;;;;;;0.75;0.38;;;7.60;99.90;;;;;;5058264;28;20223;-46
2023/01/16 13:19:07;;;;;;;0.60;0.45;;;7.60;99.90;;;;;;5065207;28;20299;-45
2023/01/16 13:21:40;;;;;;;0.40;0.30;;;7.60;99.90;;;;;;5056311;28;20693;-45
2023/01/16 13:24:16;;;;;;;0.80;0.50;;;7.60;99.90;;;;;;5057325;28;20539;-45
2023/01/16 13:26:46;;;;;;;0.50;0.30;;;7.60;99.90;;;;;;5065131;28;20300;-47
2023/01/16 13:29:21;;;;;;;0.98;0.30;;;7.60;99.90;;;;;;5067929;28;20220;-45
2023/01/16 13:31:54;;;;;;;0.90;0.50;;;7.60;99.90;;;;;;5067609;28;20219;-46
2023/01/16 13:34:26;;;;;;;1.00;0.52;;;7.60;99.90;;;;;;5069545;28;20218;-46
2023/01/16 13:37:26;;;;;;;0.50;0.40;;;7.60;99.90;;;;;;5061106;28;20308;-46
2023/01/16 13:40:23;;;;;;;0.60;0.40;;;7.60;99.90;;;;;;5081673;28;20315;-45
2023/01/16 13:45:47;;;;;;;2.25;0.52;;;7.60;99.90;;;;;;5067027;28;20213;-46
2023/01/16 13:45:48;;;;;;;0.60;0.40;;;7.60;99.90;;;;;;5067530;28;20189;-45
2023/01/16 13:48:18;;;;;;;0.50;0.38;;;7.60;99.90;;;;;;5068932;28;20223;-45
2023/01/16 13:50:53;;;;;;;0.80;0.50;;;7.50;99.90;;;;;;5062521;28;20427;-45
2023/01/16 13:53:22;;;;;;;0.98;0.60;;;7.60;99.90;;;;;;5069180;28;20430;-45
2023/01/16 13:56:05;;;;;;;1.15;0.50;;;7.60;99.90;;;;;;5065866;28;21345;-47
2023/01/16 13:58:38;;;;;;;0.90;0.43;;;7.50;99.90;;;;;;5068696;28;20196;-44
2023/01/16 14:01:07;;;;;;;0.80;0.50;;;7.50;99.90;;;;;;5064978;28;20315;-46
2023/01/16 14:03:36;;;;;;;0.93;0.60;;;7.50;99.90;;;;;;5068975;28;20189;-46
2023/01/16 14:06:20;;;;;;;0.60;0.38;;;7.50;99.90;;;;;;5067010;28;20732;-44
2023/01/16 14:09:11;;;;;;;0.68;0.50;;;7.50;99.90;;;;;;5067592;28;20424;-45
2023/01/16 14:11:57;;;;;;;0.60;0.40;;;7.50;99.90;;;;;;5067338;28;20714;-45
2023/01/16 14:17:31;;;;;;;0.70;0.50;;;7.50;99.90;;;;;;5073165;28;20227;-44
2023/01/16 14:20:01;;;;;;;0.63;0.30;;;7.50;99.90;;;;;;5040224;28;20212;-45
2023/01/16 14:25:24;;;;;;;0.85;0.50;;;7.50;99.90;;;;;;5066403;28;20581;-46
2023/01/16 14:27:56;;;;;;;1.15;0.57;;;7.40;99.90;;;;;;5067077;28;20649;-46
2023/01/16 14:30:27;;;;;;;0.50;0.40;;;7.50;99.90;;;;;;5067747;28;20673;-44
2023/01/16 14:32:59;;;;;;;0.60;0.43;;;7.50;99.90;;;;;;5075812;28;20628;-45